Time;durP1;ratioP1;P1;durP2;ratioP2;P2;SDS_P1;SDS_P2;PMS_P1;PMS_P2;Temp;Humidity;BMP_temperature;BMP_pressure;BME280_temperature;BME280_humidity;BME280_pressure;Samples;Min_cycle;Max_cycle;Signal;HPM_P1;HPM_P2
2022/03/12 00:01:17;;;;;;;3.90;2.87;;;;;;;0.14;29.88;101158.38;4250786;33;33407;-88
2022/03/12 00:03:47;;;;;;;3.30;2.92;;;;;;;0.20;29.70;101155.31;4248805;33;32697;-89
2022/03/12 00:06:17;;;;;;;4.72;3.08;;;;;;;0.17;30.04;101155.13;4249378;33;34723;-87
2022/03/12 00:08:47;;;;;;;5.07;3.20;;;;;;;0.03;30.37;101158.66;4256321;33;33381;-87
2022/03/12 00:11:21;;;;;;;3.92;2.60;;;;;;;0.07;30.11;101150.34;4250091;33;33465;-88
2022/03/12 00:13:51;;;;;;;7.97;2.58;;;;;;;0.24;30.24;101152.09;4252167;33;34575;-88
2022/03/12 00:16:22;;;;;;;2.70;2.45;;;;;;;0.28;30.15;101155.69;4252923;33;33677;-87
2022/03/12 00:18:55;;;;;;;4.03;2.83;;;;;;;0.16;30.29;101150.81;4249419;33;34002;-89
2022/03/12 00:21:30;;;;;;;4.25;2.67;;;;;;;0.02;30.77;101156.88;4256018;33;33319;-87
2022/03/12 00:24:00;;;;;;;;;;;;;;;-0.01;30.73;101153.34;4257630;33;34747;-88
2022/03/12 00:26:31;;;;;;;3.00;2.70;;;;;;;-0.06;30.79;101152.25;4251011;33;35206;-88
2022/03/12 00:29:00;;;;;;;4.70;2.87;;;;;;;0.12;30.58;101144.69;4252359;33;33582;-88
2022/03/12 00:31:29;;;;;;;3.20;2.65;;;;;;;0.17;30.50;101147.47;4248740;33;33233;-88
2022/03/12 00:33:58;;;;;;;3.10;2.80;;;;;;;-0.11;30.88;101152.81;4251945;33;33620;-89
2022/03/12 00:36:27;;;;;;;3.78;3.28;;;;;;;-0.27;31.01;101149.41;4258009;33;33656;-88
2022/03/12 00:38:55;;;;;;;4.15;2.80;;;;;;;-0.13;30.60;101156.94;4252881;33;34680;-88
2022/03/12 00:41:25;;;;;;;5.30;3.62;;;;;;;-0.25;31.68;101150.38;4247666;33;34182;-87
2022/03/12 00:43:56;;;;;;;3.70;2.97;;;;;;;-0.36;31.63;101142.94;4250314;33;32618;-87
2022/03/12 00:46:24;;;;;;;7.40;2.75;;;;;;;-0.46;32.27;101136.47;4249726;33;33597;-88
2022/03/12 00:48:53;;;;;;;6.65;3.42;;;;;;;-0.14;31.45;101145.87;4253672;33;33677;-88
2022/03/12 00:51:22;;;;;;;3.85;3.05;;;;;;;-0.08;31.33;101158.94;4252807;33;33051;-87
2022/03/12 00:53:50;;;;;;;6.35;3.37;;;;;;;-0.11;31.54;101153.69;4260107;33;33622;-87
2022/03/12 00:56:19;;;;;;;3.83;3.10;;;;;;;-0.36;31.76;101142.94;4254507;33;33882;-88
2022/03/12 00:58:48;;;;;;;2.72;2.35;;;;;;;-0.30;31.97;101149.25;4255119;33;34613;-87
2022/03/12 01:01:18;;;;;;;5.30;3.05;;;;;;;-0.07;31.29;101147.09;4260318;33;32968;-87
2022/03/12 01:03:48;;;;;;;4.65;2.95;;;;;;;-0.14;31.68;101160.31;4253735;33;33344;-87
2022/03/12 01:06:18;;;;;;;7.18;3.15;;;;;;;-0.14;32.30;101143.31;4252460;33;33711;-88
2022/03/12 01:08:47;;;;;;;4.12;3.10;;;;;;;0.01;31.35;101139.81;4250786;33;33569;-87
2022/03/12 01:11:16;;;;;;;4.90;3.15;;;;;;;-0.11;31.56;101150.25;4245534;33;33402;-87
2022/03/12 01:13:45;;;;;;;4.53;2.97;;;;;;;-0.32;32.32;101144.88;4242904;33;32877;-87
2022/03/12 01:16:14;;;;;;;4.80;3.00;;;;;;;-0.35;32.78;101145.59;4248631;33;37718;-87
2022/03/12 01:18:44;;;;;;;5.25;3.37;;;;;;;-0.24;31.97;101144.50;4251683;33;33085;-87
2022/03/12 01:21:16;;;;;;;5.50;3.42;;;;;;;-0.38;32.15;101139.47;4253991;33;32641;-89
2022/03/12 01:23:47;;;;;;;3.42;2.87;;;;;;;-0.23;31.95;101143.69;4254955;33;34434;-86
2022/03/12 01:26:17;;;;;;;4.50;3.12;;;;;;;-0.48;32.73;101141.50;4254556;33;33566;-88
2022/03/12 01:28:46;;;;;;;3.78;2.90;;;;;;;-0.56;33.26;101149.50;4259315;33;34579;-87
2022/03/12 01:31:16;;;;;;;4.18;3.17;;;;;;;-0.69;32.53;101148.84;4254723;33;33380;-87
2022/03/12 01:33:46;;;;;;;3.50;2.65;;;;;;;-0.58;32.85;101148.53;4254507;33;33947;-86
2022/03/12 01:36:15;;;;;;;5.25;3.65;;;;;;;-0.64;32.83;101144.00;4254649;33;33726;-87
2022/03/12 01:38:49;;;;;;;3.45;3.12;;;;;;;-0.48;32.65;101155.94;4253361;33;33181;-88
2022/03/12 01:41:21;;;;;;;6.07;3.15;;;;;;;-0.32;32.03;101157.62;4258759;33;32871;-87
2022/03/12 01:43:50;;;;;;;5.80;3.53;;;;;;;-0.55;32.31;101162.34;4254158;33;33132;-88
2022/03/12 01:46:19;;;;;;;2.85;2.58;;;;;;;-0.48;32.48;101164.44;4254381;33;33609;-88
2022/03/12 01:48:52;;;;;;;11.80;3.22;;;;;;;-0.50;32.17;101163.47;4254185;33;33906;-87
2022/03/12 01:51:21;;;;;;;4.05;2.90;;;;;;;-0.52;32.51;101162.50;4253684;33;33162;-88
2022/03/12 01:53:49;;;;;;;3.58;2.83;;;;;;;-0.41;32.33;101158.03;4254466;33;33675;-88
2022/03/12 01:56:18;;;;;;;7.95;3.80;;;;;;;-0.25;31.95;101162.25;4256165;33;33326;-88
2022/03/12 01:58:48;;;;;;;3.12;2.80;;;;;;;-0.25;31.81;101167.34;4252973;33;34547;-87
2022/03/12 02:01:19;;;;;;;3.35;2.75;;;;;;;-0.39;32.25;101164.06;4253757;33;33136;-87
2022/03/12 02:03:51;;;;;;;3.17;2.70;;;;;;;-0.55;32.28;101167.44;4252807;33;33789;-87
2022/03/12 02:06:21;;;;;;;9.18;3.30;;;;;;;-0.55;32.74;101177.66;4254363;33;33864;-87
2022/03/12 02:08:53;;;;;;;6.43;3.75;;;;;;;-0.65;33.00;101165.19;4257163;33;34401;-87
2022/03/12 02:11:27;;;;;;;6.20;3.65;;;;;;;-0.66;33.16;101164.28;4252478;33;33188;-87
2022/03/12 02:14:01;;;;;;;4.50;2.83;;;;;;;-0.58;32.95;101156.19;4249507;33;33787;-87
2022/03/12 02:16:30;;;;;;;4.60;3.30;;;;;;;-0.65;32.90;101166.06;4253574;33;34779;-88
2022/03/12 02:19:01;;;;;;;5.55;3.42;;;;;;;-0.75;33.44;101170.53;4252143;33;34805;-87
2022/03/12 02:21:34;;;;;;;3.42;3.10;;;;;;;-0.67;33.23;101166.78;4253208;33;35000;-88
2022/03/12 02:24:08;;;;;;;3.12;2.78;;;;;;;-0.78;34.13;101161.06;4258485;33;31996;-88
2022/03/12 02:26:38;;;;;;;3.12;2.80;;;;;;;-1.04;33.96;101154.47;4253474;33;32961;-89
2022/03/12 02:29:09;;;;;;;3.53;2.72;;;;;;;-1.22;34.26;101150.91;4248664;33;33490;-86
2022/03/12 02:31:39;;;;;;;5.75;3.03;;;;;;;-0.87;34.26;101160.53;4253438;33;33317;-88
2022/03/12 02:34:10;;;;;;;4.85;2.87;;;;;;;-0.77;34.25;101164.50;4250831;33;33851;-88
2022/03/12 02:36:40;;;;;;;5.50;2.97;;;;;;;-1.36;33.80;101160.28;4259251;33;34136;-87
2022/03/12 02:39:11;;;;;;;5.28;2.72;;;;;;;-1.41;34.30;101162.56;4253718;33;35507;-88
2022/03/12 02:41:39;;;;;;;3.43;3.00;;;;;;;-1.26;34.40;101169.34;4250166;33;33803;-88
2022/03/12 02:44:15;;;;;;;5.37;3.65;;;;;;;-1.30;34.63;101163.19;4249731;33;33355;-87
2022/03/12 02:47:11;;;;;;;4.95;3.37;;;;;;;-1.16;34.24;101163.97;4255080;33;34224;-87
2022/03/12 02:49:43;;;;;;;5.85;2.90;;;;;;;-1.44;34.28;101164.06;4243728;33;33580;-89
2022/03/12 02:52:13;;;;;;;3.67;3.03;;;;;;;-1.37;34.18;101172.13;4249164;33;32744;-87
2022/03/12 02:54:44;;;;;;;11.40;3.25;;;;;;;-0.95;34.14;101169.44;4252662;33;32901;-88
2022/03/12 02:57:13;;;;;;;3.75;2.90;;;;;;;-1.22;34.16;101169.59;4246148;33;34073;-87
2022/03/12 02:59:43;;;;;;;4.68;3.33;;;;;;;-1.34;34.07;101169.75;4252746;33;34058;-87
2022/03/12 03:02:13;;;;;;;4.12;3.22;;;;;;;-1.20;35.16;101173.13;4251786;33;33077;-87
2022/03/12 03:04:42;;;;;;;4.20;3.37;;;;;;;-1.53;34.15;101164.38;4253354;33;34141;-87
2022/03/12 03:07:12;;;;;;;3.92;3.05;;;;;;;-1.33;34.48;101169.00;4257700;33;33744;-87
2022/03/12 03:09:43;;;;;;;5.62;2.83;;;;;;;-0.88;34.40;101167.31;4252076;33;34752;-88
2022/03/12 03:12:14;;;;;;;2.60;2.35;;;;;;;-1.16;34.74;101169.97;4252184;33;33897;-89
2022/03/12 03:14:49;;;;;;;4.25;2.97;;;;;;;-0.94;34.36;101171.19;4251706;33;34609;-88
2022/03/12 03:17:18;;;;;;;6.25;2.80;;;;;;;-1.67;34.75;101170.31;4252664;33;33963;-87
2022/03/12 03:19:46;;;;;;;3.20;2.53;;;;;;;-1.70;34.51;101173.56;4252283;33;33919;-89
2022/03/12 03:22:15;;;;;;;3.03;2.72;;;;;;;-1.71;34.61;101174.34;4257976;33;33431;-89
2022/03/12 03:24:46;;;;;;;3.58;3.03;;;;;;;-1.38;34.60;101172.03;4243961;33;33610;-89
2022/03/12 03:27:14;;;;;;;5.25;2.78;;;;;;;-0.94;34.18;101177.16;4252705;33;34240;-87
2022/03/12 03:29:43;;;;;;;3.80;2.85;;;;;;;-0.61;33.58;101174.75;4251891;33;36046;-89
2022/03/12 03:32:12;;;;;;;2.75;2.55;;;;;;;-1.07;34.24;101175.56;4253900;33;33006;-87
2022/03/12 03:34:41;;;;;;;3.45;2.62;;;;;;;-1.05;34.33;101173.13;4259366;33;33610;-89
2022/03/12 03:37:10;;;;;;;4.72;2.97;;;;;;;-1.06;34.44;101173.94;4254959;33;34695;-87
2022/03/12 03:39:40;;;;;;;4.35;2.95;;;;;;;-0.78;34.24;101178.03;4253811;33;34478;-88
2022/03/12 03:42:10;;;;;;;4.80;3.30;;;;;;;-1.07;33.89;101177.25;4253188;33;33373;-89
2022/03/12 03:44:39;;;;;;;3.37;2.63;;;;;;;-0.88;34.08;101174.09;4254572;33;33720;-87
2022/03/12 03:47:07;;;;;;;3.53;3.22;;;;;;;-0.77;34.00;101182.34;4259100;33;33804;-89
2022/03/12 03:49:36;;;;;;;3.47;2.95;;;;;;;-0.63;33.63;101180.56;4254084;33;33804;-89
2022/03/12 03:52:07;;;;;;;3.28;2.72;;;;;;;-0.72;33.22;101186.91;4253583;33;33706;-88
2022/03/12 03:54:36;;;;;;;3.90;2.87;;;;;;;-0.32;33.83;101186.53;4248396;33;34565;-88
2022/03/12 03:57:07;;;;;;;3.75;2.58;;;;;;;-0.77;33.97;101188.31;4254217;33;33567;-88
2022/03/12 03:59:37;;;;;;;;;;;;;;;-0.55;33.88;101182.75;4254260;33;33978;-88
2022/03/12 04:02:06;;;;;;;4.75;2.85;;;;;;;-0.39;33.91;101187.00;4258814;33;33414;-88
2022/03/12 04:04:36;;;;;;;4.20;3.80;;;;;;;-1.20;33.64;101184.97;4252964;33;34363;-89
2022/03/12 04:07:07;;;;;;;3.70;2.67;;;;;;;-1.09;34.14;101176.28;4253911;33;34870;-88
2022/03/12 04:09:36;;;;;;;4.03;3.05;;;;;;;-0.87;33.50;101186.00;4252376;33;33182;-88
2022/03/12 04:12:05;;;;;;;2.65;2.45;;;;;;;-0.75;33.91;101183.28;4253839;33;33090;-87
2022/03/12 04:14:33;;;;;;;3.83;2.75;;;;;;;-0.59;34.11;101188.47;4258911;33;34493;-89
2022/03/12 04:17:05;;;;;;;2.75;2.55;;;;;;;-1.33;33.82;101176.63;4254357;33;34008;-87
2022/03/12 04:19:34;;;;;;;4.65;3.00;;;;;;;-0.93;34.31;101178.91;4251666;33;34692;-87
2022/03/12 04:22:06;;;;;;;4.10;2.90;;;;;;;-0.73;33.93;101182.56;4254224;33;34016;-88
2022/03/12 04:24:35;;;;;;;5.47;3.07;;;;;;;-0.78;33.99;101183.13;4253804;33;33233;-89
2022/03/12 04:27:04;;;;;;;2.80;2.53;;;;;;;-1.00;34.11;101183.56;4256731;33;33966;-87
2022/03/12 04:29:33;;;;;;;2.72;2.50;;;;;;;-0.76;33.86;101182.41;4256508;33;34285;-88
2022/03/12 04:32:03;;;;;;;3.20;2.90;;;;;;;-0.48;34.17;101182.28;4253725;33;34781;-89
2022/03/12 04:34:34;;;;;;;3.30;2.67;;;;;;;-0.30;34.33;101184.09;4253605;33;34014;-89
2022/03/12 04:37:03;;;;;;;3.20;2.80;;;;;;;-0.39;34.68;101178.47;4254478;33;34248;-89
2022/03/12 04:39:35;;;;;;;4.43;2.78;;;;;;;-0.86;34.43;101173.38;4252871;33;34542;-87
2022/03/12 04:42:04;;;;;;;2.33;2.12;;;;;;;-0.53;34.25;101185.34;4255719;33;33878;-88
2022/03/12 04:44:35;;;;;;;3.25;2.65;;;;;;;-1.43;35.22;101187.03;4252900;33;34585;-89
2022/03/12 04:47:06;;;;;;;3.03;2.72;;;;;;;-0.65;34.72;101195.78;4251651;33;32736;-89
2022/03/12 04:49:36;;;;;;;2.87;2.62;;;;;;;-0.50;34.48;101201.72;4253456;33;34559;-88
2022/03/12 04:52:06;;;;;;;4.28;3.12;;;;;;;-0.65;34.66;101188.12;4253905;33;33598;-89
2022/03/12 04:54:35;;;;;;;3.97;2.80;;;;;;;-0.48;34.55;101192.50;4259264;33;33361;-88
2022/03/12 04:57:05;;;;;;;3.08;2.62;;;;;;;-0.33;34.32;101194.13;4254111;33;33926;-88
2022/03/12 04:59:34;;;;;;;2.85;2.65;;;;;;;-0.20;33.80;101199.09;4254576;33;34546;-87
2022/03/12 05:02:03;;;;;;;2.90;2.67;;;;;;;-0.22;33.59;101198.12;4253768;33;33802;-88
2022/03/12 05:04:32;;;;;;;4.10;3.00;;;;;;;-0.27;33.71;101202.97;4253605;33;33749;-87
2022/03/12 05:07:04;;;;;;;3.28;2.67;;;;;;;-0.56;34.90;101198.81;4258496;33;34321;-89
2022/03/12 05:09:33;;;;;;;3.62;2.50;;;;;;;-0.31;34.33;101202.75;4255453;33;34190;-89
2022/03/12 05:12:05;;;;;;;3.15;2.70;;;;;;;-0.13;33.98;101200.31;4253544;33;33340;-88
2022/03/12 05:14:35;;;;;;;4.18;2.72;;;;;;;-0.70;34.22;101204.81;4253808;33;33792;-87
2022/03/12 05:17:08;;;;;;;3.08;2.70;;;;;;;-0.37;34.59;101200.72;4253072;33;34639;-88
2022/03/12 05:19:37;;;;;;;2.90;2.65;;;;;;;-0.63;34.15;101199.25;4254751;33;33594;-87
2022/03/12 05:22:09;;;;;;;2.90;2.45;;;;;;;-0.20;34.47;101198.22;4259194;33;33302;-88
2022/03/12 05:24:37;;;;;;;3.22;2.40;;;;;;;-0.48;34.55;101206.91;4252135;33;33891;-88
2022/03/12 05:27:06;;;;;;;4.93;3.08;;;;;;;-0.40;34.67;101207.34;4242013;33;33892;-87
2022/03/12 05:29:35;;;;;;;5.20;2.80;;;;;;;-0.73;35.02;101205.50;4254481;33;33620;-87
2022/03/12 05:32:06;;;;;;;2.83;2.58;;;;;;;-0.60;34.72;101203.66;4253969;33;34067;-87
2022/03/12 05:34:37;;;;;;;3.45;3.00;;;;;;;-0.33;34.89;101202.66;4258202;33;34661;-88
2022/03/12 05:37:09;;;;;;;4.62;2.72;;;;;;;-0.65;34.97;101200.88;4259367;33;33801;-87
2022/03/12 05:39:38;;;;;;;3.67;2.90;;;;;;;-0.41;35.00;101208.09;4253266;33;34284;-89
2022/03/12 05:42:08;;;;;;;2.97;2.60;;;;;;;-0.67;35.27;101207.56;4253381;33;33459;-87
2022/03/12 05:44:37;;;;;;;7.43;3.20;;;;;;;-0.78;35.30;101194.19;4254016;33;34511;-87
2022/03/12 05:47:10;;;;;;;3.50;2.72;;;;;;;-0.95;35.85;101195.78;4254588;33;32509;-88
2022/03/12 05:49:39;;;;;;;3.10;2.62;;;;;;;-0.84;35.45;101204.03;4257594;33;33859;-88
2022/03/12 05:52:10;;;;;;;4.22;3.00;;;;;;;-1.13;36.11;101194.72;4251701;33;34473;-88
2022/03/12 05:54:39;;;;;;;3.58;3.17;;;;;;;-1.16;36.14;101197.06;4254306;33;34537;-88
2022/03/12 05:57:08;;;;;;;2.92;2.58;;;;;;;-1.53;36.32;101197.47;4254908;33;34395;-89
2022/03/12 05:59:36;;;;;;;3.00;2.80;;;;;;;-1.39;36.27;101196.63;4253427;33;34216;-88
2022/03/12 06:02:06;;;;;;;3.78;3.03;;;;;;;-0.89;36.02;101198.69;4259311;33;33939;-89
2022/03/12 06:04:36;;;;;;;3.05;2.60;;;;;;;-1.40;36.82;101201.59;4252316;33;33399;-88
2022/03/12 06:07:05;;;;;;;2.95;2.75;;;;;;;-1.03;36.83;101199.56;4250529;33;34002;-89
2022/03/12 06:09:35;;;;;;;3.45;2.80;;;;;;;-1.22;36.47;101194.19;4253262;33;32341;-89
2022/03/12 06:12:05;;;;;;;5.77;3.03;;;;;;;-1.26;36.31;101200.75;4253418;33;32378;-89
2022/03/12 06:14:34;;;;;;;3.65;2.67;;;;;;;-0.70;36.23;101202.25;4253465;33;34333;-90
2022/03/12 06:17:03;;;;;;;3.55;2.53;;;;;;;-0.76;35.75;101202.81;4258233;33;34583;-88
2022/03/12 06:19:32;;;;;;;6.20;3.12;;;;;;;-0.51;35.50;101210.16;4252406;33;33456;-88
2022/03/12 06:22:06;;;;;;;7.53;3.12;;;;;;;-0.83;35.60;101203.25;4251838;33;33417;-89
2022/03/12 06:24:36;;;;;;;3.17;2.85;;;;;;;-0.67;36.15;101202.44;4251469;33;34573;-90
2022/03/12 06:27:05;;;;;;;4.40;2.92;;;;;;;-0.76;35.47;101205.34;4253204;33;33597;-90
2022/03/12 06:29:35;;;;;;;2.40;2.20;;;;;;;-0.63;35.60;101204.34;4258348;33;34007;-89
2022/03/12 06:32:07;;;;;;;2.50;2.30;;;;;;;-0.55;35.46;101205.69;4252856;33;34194;-89
2022/03/12 06:34:36;;;;;;;5.50;2.83;;;;;;;-0.32;35.40;101217.16;4253141;33;33778;-89
2022/03/12 06:37:05;;;;;;;2.60;2.40;;;;;;;-0.11;34.97;101209.78;4252344;33;34101;-88
2022/03/12 06:39:33;;;;;;;2.30;2.15;;;;;;;0.10;34.24;101210.09;4252087;33;33191;-90
2022/03/12 06:42:05;;;;;;;7.28;2.87;;;;;;;-0.23;34.76;101219.34;4257231;33;33166;-89
2022/03/12 06:44:37;;;;;;;3.55;2.60;;;;;;;-0.20;34.95;101223.72;4255313;33;34637;-91
2022/03/12 06:47:08;;;;;;;3.85;2.50;;;;;;;-0.36;34.49;101228.00;4253996;33;34122;-89
2022/03/12 06:49:38;;;;;;;2.92;2.50;;;;;;;0.46;33.61;101215.38;4253787;33;33852;-92
2022/03/12 06:52:08;;;;;;;3.83;2.60;;;;;;;0.44;33.62;101213.53;4253096;33;34244;-91
2022/03/12 06:54:38;;;;;;;4.35;2.80;;;;;;;0.12;33.77;101234.00;4252409;33;32812;-92
2022/03/12 06:57:08;;;;;;;3.53;2.25;;;;;;;0.32;33.62;101240.16;4258667;33;32053;-91
2022/03/12 06:59:37;;;;;;;3.92;2.28;;;;;;;0.38;33.19;101239.59;4253050;33;33530;-90
2022/03/12 07:02:08;;;;;;;4.87;3.03;;;;;;;0.23;33.26;101237.13;4249544;33;33004;-93
2022/03/12 07:04:38;;;;;;;2.60;2.37;;;;;;;0.08;33.35;101242.28;4242877;33;32823;-91
2022/03/12 07:07:07;;;;;;;2.50;2.30;;;;;;;0.76;33.25;101228.81;4248758;33;34024;-90
2022/03/12 07:09:35;;;;;;;3.30;2.62;;;;;;;-0.32;33.96;101242.66;4257353;33;34044;-91
2022/03/12 07:12:08;;;;;;;3.00;2.70;;;;;;;0.51;33.12;101246.22;4239467;33;32837;-90
2022/03/12 07:14:38;;;;;;;3.03;2.55;;;;;;;0.13;33.33;101250.19;4251531;33;34606;-91
2022/03/12 07:17:07;;;;;;;3.65;2.97;;;;;;;-0.06;33.92;101246.63;4255680;33;33035;-91
2022/03/12 07:19:36;;;;;;;4.45;3.58;;;;;;;0.17;33.41;101245.34;4253995;33;33813;-91
2022/03/12 07:22:05;;;;;;;4.47;2.75;;;;;;;0.52;33.38;101250.56;4254609;33;34137;-94
2022/03/12 07:24:35;;;;;;;3.67;2.87;;;;;;;0.62;33.24;101240.87;4256532;33;32958;-90
2022/03/12 07:27:04;;;;;;;3.20;2.50;;;;;;;0.24;33.57;101246.53;4248394;33;32159;-92
2022/03/12 07:29:33;;;;;;;4.00;2.87;;;;;;;0.16;33.55;101248.66;4254637;33;33895;-93
2022/03/12 07:32:05;;;;;;;2.97;2.55;;;;;;;0.80;33.15;101240.97;4254888;33;34636;-93
2022/03/12 07:34:34;;;;;;;2.85;2.30;;;;;;;0.59;33.21;101244.97;4254616;33;33648;-92
2022/03/12 07:37:03;;;;;;;3.33;2.60;;;;;;;0.11;33.95;101244.13;4260135;33;34042;-93
2022/03/12 07:39:32;;;;;;;3.78;2.40;;;;;;;0.21;33.90;101241.25;4247672;33;34085;-95
2022/03/12 07:42:02;;;;;;;3.37;2.53;;;;;;;1.02;33.17;101242.06;4244737;33;33782;-91
2022/03/12 07:44:32;;;;;;;2.90;2.58;;;;;;;1.53;32.32;101244.56;4252209;33;33135;-91
2022/03/12 07:47:04;;;;;;;3.53;2.80;;;;;;;1.41;32.15;101235.47;4241504;33;35344;-92
2022/03/12 07:49:34;;;;;;;4.60;2.72;;;;;;;1.28;32.00;101235.66;4259383;33;33812;-93
2022/03/12 07:52:03;;;;;;;5.70;2.50;;;;;;;1.23;31.96;101230.34;4257011;33;32975;-91
2022/03/12 07:54:33;;;;;;;4.95;3.12;;;;;;;1.66;31.69;101226.41;4252691;33;33549;-90
2022/03/12 07:57:02;;;;;;;2.40;2.20;;;;;;;1.17;32.18;101222.34;4254915;33;34802;-92
2022/03/12 07:59:30;;;;;;;2.60;2.40;;;;;;;1.28;31.87;101227.97;4254420;33;32804;-90
2022/03/12 08:02:02;;;;;;;;;;;;;;;1.82;31.41;101223.78;4254419;33;33399;-90
2022/03/12 08:04:33;;;;;;;3.50;2.85;;;;;;;0.86;32.45;101222.50;4259215;33;34169;-90
2022/03/12 08:07:02;;;;;;;3.92;2.95;;;;;;;1.96;31.51;101218.41;4254211;33;36985;-91
2022/03/12 08:09:32;;;;;;;4.65;2.83;;;;;;;1.97;31.14;101228.72;4253205;33;33862;-89
2022/03/12 08:12:01;;;;;;;4.15;2.28;;;;;;;1.98;31.15;101227.03;4254455;33;33163;-91
2022/03/12 08:14:33;;;;;;;2.47;2.15;;;;;;;2.52;29.63;101226.09;4254439;33;34037;-95
2022/03/12 08:17:02;;;;;;;4.32;2.20;;;;;;;2.19;29.61;101222.03;4246057;33;32610;-92
2022/03/12 08:19:35;;;;;;;4.37;2.58;;;;;;;2.60;28.98;101220.44;4253349;33;34179;-93
2022/03/12 08:22:05;;;;;;;2.60;2.33;;;;;;;2.95;28.19;101216.81;4255864;33;33015;-92
2022/03/12 08:24:34;;;;;;;2.83;2.62;;;;;;;2.99;28.33;101227.25;4254809;33;33441;-91
2022/03/12 08:27:03;;;;;;;3.65;2.58;;;;;;;3.05;28.02;101216.41;4254602;33;33966;-92
2022/03/12 08:29:32;;;;;;;2.55;2.20;;;;;;;3.21;27.45;101223.00;4253505;33;32394;-90
2022/03/12 08:32:01;;;;;;;4.15;2.62;;;;;;;3.06;27.01;101223.25;4259564;33;33003;-91
2022/03/12 08:34:30;;;;;;;6.60;2.67;;;;;;;3.39;26.94;101225.47;4242073;33;32880;-94
2022/03/12 08:37:00;;;;;;;3.87;2.30;;;;;;;2.92;27.45;101224.38;4254005;33;33827;-91
2022/03/12 08:39:29;;;;;;;2.78;2.10;;;;;;;2.61;28.27;101224.72;4255009;33;32964;-91
2022/03/12 08:41:58;;;;;;;3.67;2.60;;;;;;;2.93;27.82;101221.88;4256324;33;34131;-91
2022/03/12 08:44:27;;;;;;;4.60;2.87;;;;;;;3.13;27.22;101220.13;4259272;33;33646;-93
2022/03/12 08:46:56;;;;;;;5.85;3.53;;;;;;;3.42;27.19;101220.47;4252945;33;32206;-91
2022/03/12 08:49:27;;;;;;;;;;;;;;;3.17;26.29;101222.03;4252012;33;33818;-91
2022/03/12 08:51:56;;;;;;;4.22;2.30;;;;;;;3.08;25.56;101220.78;4245469;33;32591;-93
2022/03/12 08:54:26;;;;;;;2.35;2.15;;;;;;;3.48;25.19;101207.00;4253023;33;33844;-90
2022/03/12 08:56:55;;;;;;;3.33;2.70;;;;;;;3.20;25.79;101217.00;4243930;33;33915;-91
2022/03/12 08:59:24;;;;;;;3.20;2.30;;;;;;;2.92;25.72;101214.13;4252392;33;33380;-93
2022/03/12 09:01:53;;;;;;;4.28;2.65;;;;;;;3.18;25.66;101215.19;4252522;33;33284;-93
2022/03/12 09:04:22;;;;;;;3.15;2.40;;;;;;;3.23;26.08;101218.81;4247758;33;33704;-92
2022/03/12 09:06:51;;;;;;;3.35;2.20;;;;;;;3.53;25.17;101216.66;4251623;33;34691;-92
2022/03/12 09:09:23;;;;;;;4.15;2.85;;;;;;;3.23;25.45;101217.97;4239673;33;33266;-92
2022/03/12 09:11:53;;;;;;;2.80;2.20;;;;;;;3.51;25.59;101222.53;4255883;33;34017;-94
2022/03/12 09:14:22;;;;;;;2.15;1.90;;;;;;;3.76;24.91;101219.22;4250884;33;34260;-94
2022/03/12 09:16:51;;;;;;;4.90;3.08;;;;;;;3.93;23.85;101218.19;4254035;33;33785;-92
2022/03/12 09:19:20;;;;;;;2.80;2.17;;;;;;;4.13;24.32;101218.97;4251079;33;34924;-92
2022/03/12 09:21:49;;;;;;;4.70;2.45;;;;;;;3.91;24.01;101208.66;4251245;33;33652;-92
2022/03/12 09:24:18;;;;;;;3.10;2.10;;;;;;;4.34;23.63;101203.44;4256319;33;32586;-92
2022/03/12 09:26:47;;;;;;;3.42;2.75;;;;;;;4.17;24.31;101214.78;4251936;33;34515;-93
2022/03/12 09:29:17;;;;;;;2.35;2.15;;;;;;;4.03;24.12;101212.56;4248085;33;33685;-92
2022/03/12 09:31:50;;;;;;;1.80;1.70;;;;;;;4.51;23.73;101214.31;4246130;33;33280;-92
2022/03/12 09:34:19;;;;;;;3.20;2.47;;;;;;;4.85;22.77;101210.37;4251615;33;32896;-95
2022/03/12 09:36:49;;;;;;;3.10;2.35;;;;;;;4.31;23.17;101197.31;4255434;33;33323;-92
2022/03/12 09:39:18;;;;;;;3.28;1.98;;;;;;;4.49;23.31;101209.16;4251793;33;34625;-92
2022/03/12 09:41:47;;;;;;;2.47;2.00;;;;;;;4.54;23.04;101198.12;4251661;33;31370;-92
2022/03/12 09:44:17;;;;;;;2.15;1.95;;;;;;;4.28;23.26;101198.97;4251787;33;33099;-93
2022/03/12 09:46:46;;;;;;;2.30;2.10;;;;;;;4.51;23.88;101205.75;4238897;33;34195;-92
2022/03/12 09:49:16;;;;;;;5.35;2.22;;;;;;;4.96;23.10;101200.47;4254427;33;34527;-93
2022/03/12 09:51:47;;;;;;;2.80;2.15;;;;;;;5.04;23.19;101194.75;4253891;33;33451;-93
2022/03/12 09:54:18;;;;;;;2.53;2.12;;;;;;;5.21;23.29;101194.44;4253522;33;32158;-93
2022/03/12 09:56:46;;;;;;;3.67;2.20;;;;;;;5.28;23.01;101193.81;4252504;33;35004;-95
2022/03/12 09:59:17;;;;;;;3.75;1.90;;;;;;;5.40;22.40;101196.78;4251519;33;32381;-92
2022/03/12 10:01:45;;;;;;;2.58;2.05;;;;;;;5.21;22.69;101185.00;4245871;33;33231;-96
2022/03/12 10:04:15;;;;;;;2.83;2.00;;;;;;;5.16;22.49;101198.56;4252965;33;32995;-93
2022/03/12 10:06:44;;;;;;;2.58;2.22;;;;;;;5.03;22.16;101190.44;4252910;33;32860;-92
2022/03/12 10:09:13;;;;;;;2.90;2.05;;;;;;;4.86;22.41;101187.28;4236008;33;31918;-92
2022/03/12 10:11:43;;;;;;;4.45;2.47;;;;;;;5.09;22.68;101190.63;4229055;33;167181;-95
2022/03/12 10:14:14;;;;;;;3.28;1.90;;;;;;;5.50;21.87;101179.91;4247848;33;32010;-93
2022/03/12 10:16:44;;;;;;;3.17;2.22;;;;;;;4.80;22.68;101181.06;4238220;33;34490;-94
2022/03/12 10:19:15;;;;;;;5.60;2.58;;;;;;;5.09;22.91;101179.47;4256008;33;32076;-91
2022/03/12 10:21:45;;;;;;;1.98;1.77;;;;;;;5.61;22.70;101182.84;4246048;33;32250;-94
2022/03/12 10:24:14;;;;;;;3.42;2.90;;;;;;;4.82;22.59;101177.72;4251495;33;32680;-93
2022/03/12 10:26:43;;;;;;;2.45;2.00;;;;;;;5.60;22.48;101179.37;4246343;33;34167;-92
2022/03/12 10:29:12;;;;;;;3.70;2.15;;;;;;;5.31;21.91;101178.44;4245485;33;33738;-92
2022/03/12 10:31:41;;;;;;;2.15;1.73;;;;;;;5.03;22.36;101181.84;4252440;33;34139;-94
2022/03/12 10:34:21;;;;;;;3.62;2.40;;;;;;;5.44;22.02;101172.87;4233514;33;32290;-93
2022/03/12 10:36:52;;;;;;;5.43;2.55;;;;;;;5.43;22.26;101185.69;4244796;33;32516;-94
2022/03/12 10:39:32;;;;;;;3.00;2.50;;;;;;;5.41;22.10;101177.03;4242618;33;32796;-92
2022/03/12 10:42:06;;;;;;;2.22;2.00;;;;;;;5.38;21.66;101167.53;4244828;33;33574;-91
2022/03/12 10:44:36;;;;;;;3.10;1.90;;;;;;;5.40;22.19;101171.03;4250600;33;34483;-93
2022/03/12 10:47:15;;;;;;;1.98;1.77;;;;;;;5.61;22.60;101159.69;4258648;33;33861;-92
2022/03/12 10:49:58;;;;;;;2.08;1.87;;;;;;;6.09;21.63;101169.69;4253024;33;34224;-92
2022/03/12 10:52:31;;;;;;;2.33;1.62;;;;;;;5.44;21.82;101166.88;4246899;33;33746;-92
2022/03/12 10:55:02;;;;;;;2.15;1.98;;;;;;;5.63;21.47;101158.87;4242556;33;32685;-94
2022/03/12 10:57:31;;;;;;;2.55;1.95;;;;;;;5.28;21.98;101163.78;4245601;33;32885;-95
2022/03/12 11:00:00;;;;;;;3.55;2.25;;;;;;;6.02;21.50;101160.03;4252322;33;32705;-93
2022/03/12 11:02:30;;;;;;;1.77;1.62;;;;;;;5.97;21.85;101150.50;4250850;33;33455;-93
2022/03/12 11:05:04;;;;;;;2.37;2.17;;;;;;;6.16;21.69;101145.84;4245467;33;33168;-93
2022/03/12 11:07:34;;;;;;;2.08;1.95;;;;;;;6.44;21.17;101146.63;4245852;33;34471;-93
2022/03/12 11:10:06;;;;;;;2.10;1.77;;;;;;;6.11;21.15;101142.25;4243594;33;33707;-93
2022/03/12 11:12:36;;;;;;;2.00;1.80;;;;;;;6.63;21.25;101143.69;4246206;33;32926;-93
2022/03/12 11:15:10;;;;;;;1.83;1.70;;;;;;;6.49;21.07;101143.31;4252354;33;34050;-94
2022/03/12 11:17:43;;;;;;;2.17;1.80;;;;;;;6.68;20.78;101136.09;4248889;33;33255;-94
2022/03/12 11:20:21;;;;;;;2.15;1.85;;;;;;;6.12;20.32;101129.44;4245219;33;33159;-94
2022/03/12 11:22:51;;;;;;;2.85;2.00;;;;;;;6.03;20.69;101129.16;4246150;33;33722;-93
2022/03/12 11:25:22;;;;;;;2.22;1.70;;;;;;;5.70;20.91;101116.16;4243504;33;33831;-94
2022/03/12 11:27:51;;;;;;;2.35;1.90;;;;;;;6.42;20.91;101123.38;4231971;33;34722;-95
2022/03/12 11:30:23;;;;;;;3.17;2.15;;;;;;;6.82;20.75;101119.25;4251830;33;34079;-93
2022/03/12 11:33:05;;;;;;;3.65;2.15;;;;;;;6.96;19.85;101119.56;4250406;33;33552;-93
2022/03/12 11:35:44;;;;;;;;;;;;;;;6.96;20.39;101115.31;4243906;33;33171;-94
2022/03/12 11:38:15;;;;;;;1.58;1.48;;;;;;;6.97;19.73;101111.00;4256375;33;34450;-94
2022/03/12 11:40:47;;;;;;;2.28;2.08;;;;;;;6.71;19.81;101111.22;4245229;33;33611;-94
2022/03/12 11:43:24;;;;;;;2.17;1.77;;;;;;;6.95;20.04;101115.25;4263309;33;33539;-94